This is the latest recevied weather packets stored in our database for station/object KV4OP. If no packets are shown the sender has not sent any weather packets the latest 10 day(s).
| Time | Temp. | Humidity | Pressure | Rain* | Wind** | Luminosity | Snow |
|---|---|---|---|---|---|---|---|
| 1788367230 | 28.89° C | 86% | 1016.6 hPa | 0.25 mm | - | - | - |
| 1788366921 | 28.89° C | 86% | 1016.6 hPa | 0.25 mm | - | - | - |
| 1788366621 | 28.89° C | 85% | 1016.6 hPa | 0.25 mm | - | - | - |
| 1788366321 | 29.44° C | 82% | 1016.5 hPa | 0.25 mm | - | - | - |
| 1788366030 | 30.56° C | 79% | 1016.4 hPa | 0 mm | - | - | - |
| 1788365722 | 31.11° C | 76% | 1016.5 hPa | 0 mm | - | - | - |
| 1788365421 | 32.22° C | 74% | 1016.5 hPa | 0 mm | - | - | - |
| 1788365121 | 31.67° C | 74% | 1016.6 hPa | 0 mm | - | - | - |
| 1788364830 | 31.11° C | 77% | 1016.5 hPa | 0 mm | - | - | - |
| 1788364521 | 30.56° C | 79% | 1016.6 hPa | 0 mm | - | - | - |
| 1788364221 | 30.56° C | 79% | 1016.7 hPa | 0 mm | - | - | - |
| 1788363921 | 31.11° C | 77% | 1016.9 hPa | 0 mm | - | - | - |
| 1788363630 | 31.67° C | 76% | 1016.8 hPa | 0 mm | - | - | - |
| 1788363321 | 31.67° C | 76% | 1016.8 hPa | 0 mm | - | - | - |
| 1788363022 | 31.67° C | 75% | 1016.7 hPa | 0 mm | - | - | - |
| 1788362721 | 31.67° C | 76% | 1016.8 hPa | 0 mm | - | - | - |
| 1788362431 | 31.11° C | 77% | 1016.9 hPa | 0 mm | - | - | - |
| 1788362123 | 31.11° C | 77% | 1016.9 hPa | 0 mm | - | - | - |
| 1788361822 | 31.67° C | 75% | 1016.8 hPa | 0 mm | - | - | - |
| 1788361522 | 31.67° C | 76% | 1016.8 hPa | 0 mm | - | - | - |
| 1788361231 | 31.11° C | 77% | 1016.8 hPa | 0 mm | - | - | - |
| 1788360921 | 30.56° C | 77% | 1016.9 hPa | 0 mm | - | - | - |
| 1788360621 | 31.11° C | 77% | 1016.9 hPa | 0 mm | - | - | - |
| 1788360322 | 31.11° C | 77% | 1016.8 hPa | 0 mm | - | - | - |
| 1788360030 | 31.67° C | 78% | 1016.9 hPa | 0 mm | - | - | - |
* Rain latest hour (hover to see other rain measurements)
** Current wind speed in m/s (hover to see current wind gust speed)